SVGT weather

Guasipati Airport
BolĂ­var, Venezuela

Public forecast

Using degrees Celsius for public forecast. Weather courtesy of forecast.io.

Closest aviation weather report (METAR) to Guasipati Airport

Report is more than 6 hours old.

Closest report is Tumeremo Airport, 25.9 nm (48.0 km) ESE. Retrieved 2015/01/29 12:00 UTC (5 years ago):

SVTM 291200Z NI SVPA 291200 /////KT 9999 FEW013 25/22 Q1011

Closest aviation forecast (TAF) to Guasipati Airport

Forecast is more than 12 hours old.

Closest forecast is Kamarang Airport, 123.4 nm (228.5 km) SE. Retrieved 2019/10/15 12:00 UTC (22 hours ago):

TAF SYKM 151000Z 1512/1523 08012KT 9999 BKN020 SCT100